sensor_id;sensor_type;location;lat;lon;timestamp;temperature;humidity
29571;DHT22;16814;52.118;11.436;2022-07-10T00:00:47;14.20;99.90
29571;DHT22;16814;52.118;11.436;2022-07-10T00:03:15;14.20;99.90
29571;DHT22;16814;52.118;11.436;2022-07-10T00:05:42;14.10;99.90
29571;DHT22;16814;52.118;11.436;2022-07-10T00:08:08;14.20;99.90
29571;DHT22;16814;52.118;11.436;2022-07-10T00:10:35;14.20;99.90
29571;DHT22;16814;52.118;11.436;2022-07-10T00:13:03;14.20;99.90
29571;DHT22;16814;52.118;11.436;2022-07-10T00:15:31;14.20;99.90
29571;DHT22;16814;52.118;11.436;2022-07-10T00:17:59;14.20;99.90
29571;DHT22;16814;52.118;11.436;2022-07-10T00:20:25;14.20;99.90
29571;DHT22;16814;52.118;11.436;2022-07-10T00:22:52;14.20;99.90
29571;DHT22;16814;52.118;11.436;2022-07-10T00:25:21;14.30;99.90
29571;DHT22;16814;52.118;11.436;2022-07-10T00:27:46;14.20;99.90
29571;DHT22;16814;52.118;11.436;2022-07-10T00:30:13;14.20;99.90
29571;DHT22;16814;52.118;11.436;2022-07-10T00:32:40;14.10;99.90
29571;DHT22;16814;52.118;11.436;2022-07-10T00:35:06;14.20;99.90
29571;DHT22;16814;52.118;11.436;2022-07-10T00:37:35;14.10;99.90
29571;DHT22;16814;52.118;11.436;2022-07-10T00:40:03;14.20;99.90
29571;DHT22;16814;52.118;11.436;2022-07-10T00:42:31;14.10;99.90
29571;DHT22;16814;52.118;11.436;2022-07-10T00:44:57;14.10;99.90
29571;DHT22;16814;52.118;11.436;2022-07-10T00:47:23;14.20;99.90
29571;DHT22;16814;52.118;11.436;2022-07-10T00:49:50;14.20;99.90
29571;DHT22;16814;52.118;11.436;2022-07-10T00:52:17;14.10;99.90
29571;DHT22;16814;52.118;11.436;2022-07-10T00:54:46;14.10;99.90
29571;DHT22;16814;52.118;11.436;2022-07-10T00:57:21;14.10;99.90
29571;DHT22;16814;52.118;11.436;2022-07-10T00:59:51;14.10;99.90
29571;DHT22;16814;52.118;11.436;2022-07-10T01:02:20;14.20;99.90
29571;DHT22;16814;52.118;11.436;2022-07-10T01:04:47;14.20;99.90
29571;DHT22;16814;52.118;11.436;2022-07-10T01:07:13;14.10;99.90
29571;DHT22;16814;52.118;11.436;2022-07-10T01:09:42;14.10;99.90
29571;DHT22;16814;52.118;11.436;2022-07-10T01:12:11;14.10;99.90
29571;DHT22;16814;52.118;11.436;2022-07-10T01:14:37;14.20;99.90
29571;DHT22;16814;52.118;11.436;2022-07-10T01:17:09;14.10;99.90
29571;DHT22;16814;52.118;11.436;2022-07-10T01:19:36;14.10;99.90
29571;DHT22;16814;52.118;11.436;2022-07-10T01:22:02;14.10;99.90
29571;DHT22;16814;52.118;11.436;2022-07-10T01:24:32;14.10;99.90
29571;DHT22;16814;52.118;11.436;2022-07-10T01:26:57;14.10;99.90
29571;DHT22;16814;52.118;11.436;2022-07-10T01:29:26;14.10;99.90
29571;DHT22;16814;52.118;11.436;2022-07-10T01:31:51;14.10;99.90
29571;DHT22;16814;52.118;11.436;2022-07-10T01:34:18;14.10;99.90
29571;DHT22;16814;52.118;11.436;2022-07-10T01:36:44;14.10;99.90
29571;DHT22;16814;52.118;11.436;2022-07-10T01:39:11;14.00;99.90
29571;DHT22;16814;52.118;11.436;2022-07-10T01:41:36;14.00;99.90
29571;DHT22;16814;52.118;11.436;2022-07-10T01:44:03;14.00;99.90
29571;DHT22;16814;52.118;11.436;2022-07-10T01:46:31;14.00;99.90
29571;DHT22;16814;52.118;11.436;2022-07-10T01:48:58;13.90;99.90
29571;DHT22;16814;52.118;11.436;2022-07-10T01:51:26;13.90;99.90
29571;DHT22;16814;52.118;11.436;2022-07-10T01:53:51;13.90;99.90
29571;DHT22;16814;52.118;11.436;2022-07-10T01:56:17;13.90;99.90
29571;DHT22;16814;52.118;11.436;2022-07-10T01:58:43;13.90;99.90
29571;DHT22;16814;52.118;11.436;2022-07-10T02:01:10;13.90;99.90
29571;DHT22;16814;52.118;11.436;2022-07-10T02:03:36;13.90;99.90
29571;DHT22;16814;52.118;11.436;2022-07-10T02:06:20;13.90;99.90
29571;DHT22;16814;52.118;11.436;2022-07-10T02:08:47;13.90;99.90
29571;DHT22;16814;52.118;11.436;2022-07-10T02:11:13;13.90;99.90
29571;DHT22;16814;52.118;11.436;2022-07-10T02:13:40;13.80;99.90
29571;DHT22;16814;52.118;11.436;2022-07-10T02:16:06;13.80;99.90
29571;DHT22;16814;52.118;11.436;2022-07-10T02:18:32;13.80;99.90
29571;DHT22;16814;52.118;11.436;2022-07-10T02:20:58;13.80;99.90
29571;DHT22;16814;52.118;11.436;2022-07-10T02:23:26;13.80;99.90
29571;DHT22;16814;52.118;11.436;2022-07-10T02:25:53;13.70;99.90
29571;DHT22;16814;52.118;11.436;2022-07-10T02:28:21;13.70;99.90
29571;DHT22;16814;52.118;11.436;2022-07-10T02:30:47;13.80;99.90
29571;DHT22;16814;52.118;11.436;2022-07-10T02:33:13;13.70;99.90
29571;DHT22;16814;52.118;11.436;2022-07-10T02:35:39;13.70;99.90
29571;DHT22;16814;52.118;11.436;2022-07-10T02:38:04;13.70;99.90
29571;DHT22;16814;52.118;11.436;2022-07-10T02:40:32;13.70;99.90
29571;DHT22;16814;52.118;11.436;2022-07-10T02:43:01;13.70;99.90
29571;DHT22;16814;52.118;11.436;2022-07-10T02:45:26;13.70;99.90
29571;DHT22;16814;52.118;11.436;2022-07-10T02:47:52;13.70;99.90
29571;DHT22;16814;52.118;11.436;2022-07-10T02:50:19;13.60;99.90
29571;DHT22;16814;52.118;11.436;2022-07-10T02:52:45;13.60;99.90
29571;DHT22;16814;52.118;11.436;2022-07-10T02:55:13;13.60;99.90
29571;DHT22;16814;52.118;11.436;2022-07-10T02:57:39;13.60;99.90
29571;DHT22;16814;52.118;11.436;2022-07-10T03:00:07;13.50;99.90
29571;DHT22;16814;52.118;11.436;2022-07-10T03:02:34;13.40;99.90
29571;DHT22;16814;52.118;11.436;2022-07-10T03:04:59;13.40;99.90
29571;DHT22;16814;52.118;11.436;2022-07-10T03:07:25;13.50;99.90
29571;DHT22;16814;52.118;11.436;2022-07-10T03:09:52;13.50;99.90
29571;DHT22;16814;52.118;11.436;2022-07-10T03:12:20;13.40;99.90
29571;DHT22;16814;52.118;11.436;2022-07-10T03:14:47;13.40;99.90
29571;DHT22;16814;52.118;11.436;2022-07-10T03:17:13;13.40;99.90
29571;DHT22;16814;52.118;11.436;2022-07-10T03:19:46;13.40;99.90
29571;DHT22;16814;52.118;11.436;2022-07-10T03:22:13;13.60;99.90
29571;DHT22;16814;52.118;11.436;2022-07-10T03:24:41;13.60;99.90
29571;DHT22;16814;52.118;11.436;2022-07-10T03:27:10;13.60;99.90
29571;DHT22;16814;52.118;11.436;2022-07-10T03:29:37;13.60;99.90
29571;DHT22;16814;52.118;11.436;2022-07-10T03:32:04;13.60;99.90
29571;DHT22;16814;52.118;11.436;2022-07-10T03:34:30;13.60;99.90
29571;DHT22;16814;52.118;11.436;2022-07-10T03:36:57;13.50;99.90
29571;DHT22;16814;52.118;11.436;2022-07-10T03:39:22;13.60;99.90
29571;DHT22;16814;52.118;11.436;2022-07-10T03:41:50;13.50;99.90
29571;DHT22;16814;52.118;11.436;2022-07-10T03:44:16;13.50;99.90
29571;DHT22;16814;52.118;11.436;2022-07-10T03:46:41;13.40;99.90
29571;DHT22;16814;52.118;11.436;2022-07-10T03:49:08;13.50;99.90
29571;DHT22;16814;52.118;11.436;2022-07-10T03:51:35;13.50;99.90
29571;DHT22;16814;52.118;11.436;2022-07-10T03:54:02;13.50;99.90
29571;DHT22;16814;52.118;11.436;2022-07-10T03:56:29;13.50;99.90
29571;DHT22;16814;52.118;11.436;2022-07-10T03:59:19;13.50;99.90
29571;DHT22;16814;52.118;11.436;2022-07-10T04:01:45;13.50;99.90
29571;DHT22;16814;52.118;11.436;2022-07-10T04:04:10;13.50;99.90
29571;DHT22;16814;52.118;11.436;2022-07-10T04:06:37;13.50;99.90
29571;DHT22;16814;52.118;11.436;2022-07-10T04:09:06;13.50;99.90
29571;DHT22;16814;52.118;11.436;2022-07-10T04:11:32;13.40;99.90
29571;DHT22;16814;52.118;11.436;2022-07-10T04:14:01;13.40;99.90
29571;DHT22;16814;52.118;11.436;2022-07-10T04:16:27;13.40;99.90
29571;DHT22;16814;52.118;11.436;2022-07-10T04:18:54;13.30;99.90
29571;DHT22;16814;52.118;11.436;2022-07-10T04:21:21;13.30;99.90
29571;DHT22;16814;52.118;11.436;2022-07-10T04:23:48;13.40;99.90
29571;DHT22;16814;52.118;11.436;2022-07-10T04:26:14;13.40;99.90
29571;DHT22;16814;52.118;11.436;2022-07-10T04:28:42;13.30;99.90
29571;DHT22;16814;52.118;11.436;2022-07-10T04:31:07;13.30;99.90
29571;DHT22;16814;52.118;11.436;2022-07-10T04:33:34;13.30;99.90
29571;DHT22;16814;52.118;11.436;2022-07-10T04:35:59;13.30;99.90
29571;DHT22;16814;52.118;11.436;2022-07-10T04:38:25;13.40;99.90
29571;DHT22;16814;52.118;11.436;2022-07-10T04:40:52;13.40;99.90
29571;DHT22;16814;52.118;11.436;2022-07-10T04:43:19;13.50;99.90
29571;DHT22;16814;52.118;11.436;2022-07-10T04:45:47;13.50;99.90
29571;DHT22;16814;52.118;11.436;2022-07-10T04:48:16;13.40;99.90
29571;DHT22;16814;52.118;11.436;2022-07-10T04:50:42;13.50;99.90
29571;DHT22;16814;52.118;11.436;2022-07-10T04:53:07;13.40;99.90
29571;DHT22;16814;52.118;11.436;2022-07-10T04:55:34;13.40;99.90
29571;DHT22;16814;52.118;11.436;2022-07-10T04:58:02;13.40;99.90
29571;DHT22;16814;52.118;11.436;2022-07-10T05:00:29;13.40;99.90
29571;DHT22;16814;52.118;11.436;2022-07-10T05:02:56;13.30;99.90
29571;DHT22;16814;52.118;11.436;2022-07-10T05:05:24;13.40;99.90
29571;DHT22;16814;52.118;11.436;2022-07-10T05:07:49;13.30;99.90
29571;DHT22;16814;52.118;11.436;2022-07-10T05:10:18;13.30;99.90
29571;DHT22;16814;52.118;11.436;2022-07-10T05:12:44;13.30;99.90
29571;DHT22;16814;52.118;11.436;2022-07-10T05:15:13;13.30;99.90
29571;DHT22;16814;52.118;11.436;2022-07-10T05:17:41;13.20;99.90
29571;DHT22;16814;52.118;11.436;2022-07-10T05:20:08;13.30;99.90
29571;DHT22;16814;52.118;11.436;2022-07-10T05:22:36;13.30;99.90
29571;DHT22;16814;52.118;11.436;2022-07-10T05:25:03;13.30;99.90
29571;DHT22;16814;52.118;11.436;2022-07-10T05:27:30;13.30;99.90
29571;DHT22;16814;52.118;11.436;2022-07-10T05:29:57;13.30;99.90
29571;DHT22;16814;52.118;11.436;2022-07-10T05:32:24;13.40;99.90
29571;DHT22;16814;52.118;11.436;2022-07-10T05:34:52;13.40;99.90
29571;DHT22;16814;52.118;11.436;2022-07-10T05:37:18;13.40;99.90
29571;DHT22;16814;52.118;11.436;2022-07-10T05:39:45;13.50;99.90
29571;DHT22;16814;52.118;11.436;2022-07-10T05:42:12;13.50;99.90
29571;DHT22;16814;52.118;11.436;2022-07-10T05:44:40;13.50;99.90
29571;DHT22;16814;52.118;11.436;2022-07-10T05:47:06;13.50;99.90
29571;DHT22;16814;52.118;11.436;2022-07-10T05:49:34;13.50;99.90
29571;DHT22;16814;52.118;11.436;2022-07-10T05:52:01;13.50;99.90
29571;DHT22;16814;52.118;11.436;2022-07-10T05:54:26;13.60;99.90
29571;DHT22;16814;52.118;11.436;2022-07-10T05:56:53;13.60;99.90
29571;DHT22;16814;52.118;11.436;2022-07-10T05:59:20;13.60;99.90
29571;DHT22;16814;52.118;11.436;2022-07-10T06:01:48;13.70;99.90
29571;DHT22;16814;52.118;11.436;2022-07-10T06:04:15;13.70;99.90
29571;DHT22;16814;52.118;11.436;2022-07-10T06:06:44;13.70;99.90
29571;DHT22;16814;52.118;11.436;2022-07-10T06:09:16;13.60;99.90
29571;DHT22;16814;52.118;11.436;2022-07-10T06:11:50;13.70;99.90
29571;DHT22;16814;52.118;11.436;2022-07-10T06:14:17;13.60;99.90
29571;DHT22;16814;52.118;11.436;2022-07-10T06:16:43;13.70;99.90
29571;DHT22;16814;52.118;11.436;2022-07-10T06:19:10;13.70;99.90
29571;DHT22;16814;52.118;11.436;2022-07-10T06:21:42;13.80;99.90
29571;DHT22;16814;52.118;11.436;2022-07-10T06:24:10;13.80;99.90
29571;DHT22;16814;52.118;11.436;2022-07-10T06:26:37;13.80;99.90
29571;DHT22;16814;52.118;11.436;2022-07-10T06:29:04;13.80;99.90
29571;DHT22;16814;52.118;11.436;2022-07-10T06:31:31;13.90;99.90
29571;DHT22;16814;52.118;11.436;2022-07-10T06:33:58;13.90;99.90
29571;DHT22;16814;52.118;11.436;2022-07-10T06:36:25;13.90;99.90
29571;DHT22;16814;52.118;11.436;2022-07-10T06:38:52;14.00;99.90
29571;DHT22;16814;52.118;11.436;2022-07-10T06:41:20;13.90;99.90
29571;DHT22;16814;52.118;11.436;2022-07-10T06:43:46;14.00;99.90
29571;DHT22;16814;52.118;11.436;2022-07-10T06:46:15;14.00;99.90
29571;DHT22;16814;52.118;11.436;2022-07-10T06:48:51;14.10;99.90
29571;DHT22;16814;52.118;11.436;2022-07-10T06:51:20;14.00;99.90
29571;DHT22;16814;52.118;11.436;2022-07-10T06:53:48;14.20;99.90
29571;DHT22;16814;52.118;11.436;2022-07-10T06:56:15;14.20;99.90
29571;DHT22;16814;52.118;11.436;2022-07-10T06:58:45;14.30;99.90
29571;DHT22;16814;52.118;11.436;2022-07-10T07:01:10;14.30;99.90
29571;DHT22;16814;52.118;11.436;2022-07-10T07:03:38;14.30;99.90
29571;DHT22;16814;52.118;11.436;2022-07-10T07:06:05;14.40;99.90
29571;DHT22;16814;52.118;11.436;2022-07-10T07:08:32;14.50;99.90
29571;DHT22;16814;52.118;11.436;2022-07-10T07:10:59;14.50;99.90
29571;DHT22;16814;52.118;11.436;2022-07-10T07:13:26;14.50;99.90
29571;DHT22;16814;52.118;11.436;2022-07-10T07:15:53;14.50;99.90
29571;DHT22;16814;52.118;11.436;2022-07-10T07:18:29;14.60;99.90
29571;DHT22;16814;52.118;11.436;2022-07-10T07:21:02;14.70;99.90
29571;DHT22;16814;52.118;11.436;2022-07-10T07:23:49;14.80;99.90
29571;DHT22;16814;52.118;11.436;2022-07-10T07:26:14;14.80;99.90
29571;DHT22;16814;52.118;11.436;2022-07-10T07:28:41;14.80;99.90
29571;DHT22;16814;52.118;11.436;2022-07-10T07:31:08;14.90;99.90
29571;DHT22;16814;52.118;11.436;2022-07-10T07:33:35;14.90;99.90
29571;DHT22;16814;52.118;11.436;2022-07-10T07:36:03;14.90;99.90
29571;DHT22;16814;52.118;11.436;2022-07-10T07:38:31;14.90;99.90
29571;DHT22;16814;52.118;11.436;2022-07-10T07:40:56;14.90;99.90
29571;DHT22;16814;52.118;11.436;2022-07-10T07:43:23;14.90;99.90
29571;DHT22;16814;52.118;11.436;2022-07-10T07:45:49;15.00;99.90
29571;DHT22;16814;52.118;11.436;2022-07-10T07:48:16;15.00;99.90
29571;DHT22;16814;52.118;11.436;2022-07-10T07:50:46;15.00;99.90
29571;DHT22;16814;52.118;11.436;2022-07-10T07:53:13;15.10;99.90
29571;DHT22;16814;52.118;11.436;2022-07-10T07:55:46;15.10;99.90
29571;DHT22;16814;52.118;11.436;2022-07-10T07:58:15;15.10;99.90
29571;DHT22;16814;52.118;11.436;2022-07-10T08:00:42;15.10;99.90
29571;DHT22;16814;52.118;11.436;2022-07-10T08:03:11;15.10;99.90
29571;DHT22;16814;52.118;11.436;2022-07-10T08:05:39;15.20;99.90
29571;DHT22;16814;52.118;11.436;2022-07-10T08:08:06;15.20;99.90
29571;DHT22;16814;52.118;11.436;2022-07-10T08:10:35;15.20;99.90
29571;DHT22;16814;52.118;11.436;2022-07-10T08:13:03;15.30;99.90
29571;DHT22;16814;52.118;11.436;2022-07-10T08:15:31;15.40;99.90
29571;DHT22;16814;52.118;11.436;2022-07-10T08:17:59;15.50;99.90
29571;DHT22;16814;52.118;11.436;2022-07-10T08:20:27;15.40;99.90
29571;DHT22;16814;52.118;11.436;2022-07-10T08:22:54;15.60;99.90
29571;DHT22;16814;52.118;11.436;2022-07-10T08:25:22;15.60;99.90
29571;DHT22;16814;52.118;11.436;2022-07-10T08:27:48;15.60;99.90
29571;DHT22;16814;52.118;11.436;2022-07-10T08:30:15;15.60;99.90
29571;DHT22;16814;52.118;11.436;2022-07-10T08:32:42;15.60;99.90
29571;DHT22;16814;52.118;11.436;2022-07-10T08:35:10;15.80;99.90
29571;DHT22;16814;52.118;11.436;2022-07-10T08:37:41;16.10;99.90
29571;DHT22;16814;52.118;11.436;2022-07-10T08:40:12;16.50;99.90
29571;DHT22;16814;52.118;11.436;2022-07-10T08:42:43;16.80;99.90
29571;DHT22;16814;52.118;11.436;2022-07-10T08:45:14;16.80;99.90
29571;DHT22;16814;52.118;11.436;2022-07-10T08:47:42;17.00;99.90
29571;DHT22;16814;52.118;11.436;2022-07-10T08:50:22;17.10;99.90
29571;DHT22;16814;52.118;11.436;2022-07-10T08:52:57;16.90;99.90
29571;DHT22;16814;52.118;11.436;2022-07-10T08:55:27;16.90;99.90
29571;DHT22;16814;52.118;11.436;2022-07-10T08:57:56;16.70;99.90
29571;DHT22;16814;52.118;11.436;2022-07-10T09:00:27;16.70;99.90
29571;DHT22;16814;52.118;11.436;2022-07-10T09:02:57;16.70;99.90
29571;DHT22;16814;52.118;11.436;2022-07-10T09:05:24;16.70;99.90
29571;DHT22;16814;52.118;11.436;2022-07-10T09:07:53;16.60;99.90
29571;DHT22;16814;52.118;11.436;2022-07-10T09:10:24;16.60;99.90
29571;DHT22;16814;52.118;11.436;2022-07-10T09:13:01;16.50;99.90
29571;DHT22;16814;52.118;11.436;2022-07-10T09:15:32;16.60;99.90
29571;DHT22;16814;52.118;11.436;2022-07-10T09:18:05;16.70;99.90
29571;DHT22;16814;52.118;11.436;2022-07-10T09:20:40;16.80;99.90
29571;DHT22;16814;52.118;11.436;2022-07-10T09:23:19;16.90;99.90
29571;DHT22;16814;52.118;11.436;2022-07-10T09:25:47;16.90;99.90
29571;DHT22;16814;52.118;11.436;2022-07-10T09:28:17;16.90;99.90
29571;DHT22;16814;52.118;11.436;2022-07-10T09:30:44;16.70;99.90
29571;DHT22;16814;52.118;11.436;2022-07-10T09:33:29;16.70;99.90
29571;DHT22;16814;52.118;11.436;2022-07-10T09:44:05;17.20;99.90
29571;DHT22;16814;52.118;11.436;2022-07-10T09:46:39;17.60;99.90
29571;DHT22;16814;52.118;11.436;2022-07-10T09:49:14;17.90;99.90
29571;DHT22;16814;52.118;11.436;2022-07-10T09:51:46;18.10;99.90
29571;DHT22;16814;52.118;11.436;2022-07-10T09:54:12;18.40;99.90
29571;DHT22;16814;52.118;11.436;2022-07-10T09:56:46;18.60;99.90
29571;DHT22;16814;52.118;11.436;2022-07-10T09:59:17;18.80;99.90
29571;DHT22;16814;52.118;11.436;2022-07-10T10:01:53;19.00;99.90
29571;DHT22;16814;52.118;11.436;2022-07-10T10:04:21;18.90;99.90
29571;DHT22;16814;52.118;11.436;2022-07-10T10:06:57;18.80;99.90
29571;DHT22;16814;52.118;11.436;2022-07-10T10:09:41;18.60;99.90
29571;DHT22;16814;52.118;11.436;2022-07-10T10:12:17;18.20;99.90
29571;DHT22;16814;52.118;11.436;2022-07-10T10:15:04;17.80;99.90
29571;DHT22;16814;52.118;11.436;2022-07-10T10:17:34;17.70;99.90
29571;DHT22;16814;52.118;11.436;2022-07-10T10:20:04;17.60;99.90
29571;DHT22;16814;52.118;11.436;2022-07-10T10:22:53;17.50;99.90
29571;DHT22;16814;52.118;11.436;2022-07-10T10:25:25;17.50;99.90
29571;DHT22;16814;52.118;11.436;2022-07-10T10:27:52;17.80;99.90
29571;DHT22;16814;52.118;11.436;2022-07-10T10:30:21;18.10;99.90
29571;DHT22;16814;52.118;11.436;2022-07-10T10:32:49;18.40;99.90
29571;DHT22;16814;52.118;11.436;2022-07-10T10:35:43;18.90;99.90
29571;DHT22;16814;52.118;11.436;2022-07-10T10:38:13;19.40;99.90
29571;DHT22;16814;52.118;11.436;2022-07-10T10:40:41;19.30;99.90
29571;DHT22;16814;52.118;11.436;2022-07-10T10:43:24;19.40;99.90
29571;DHT22;16814;52.118;11.436;2022-07-10T10:45:51;19.40;99.90
29571;DHT22;16814;52.118;11.436;2022-07-10T10:48:20;19.30;99.90
29571;DHT22;16814;52.118;11.436;2022-07-10T10:50:55;19.20;99.90
29571;DHT22;16814;52.118;11.436;2022-07-10T10:53:23;18.90;99.90
29571;DHT22;16814;52.118;11.436;2022-07-10T10:58:48;18.90;99.90
29571;DHT22;16814;52.118;11.436;2022-07-10T11:01:27;19.00;98.70
29571;DHT22;16814;52.118;11.436;2022-07-10T11:04:14;19.10;98.40
29571;DHT22;16814;52.118;11.436;2022-07-10T11:06:52;19.60;98.70
29571;DHT22;16814;52.118;11.436;2022-07-10T11:09:29;19.70;97.50
29571;DHT22;16814;52.118;11.436;2022-07-10T11:14:34;19.60;98.30
29571;DHT22;16814;52.118;11.436;2022-07-10T11:17:02;19.60;97.30
29571;DHT22;16814;52.118;11.436;2022-07-10T11:19:30;19.60;97.10
29571;DHT22;16814;52.118;11.436;2022-07-10T11:22:39;19.60;97.00
29571;DHT22;16814;52.118;11.436;2022-07-10T11:28:08;19.60;96.10
29571;DHT22;16814;52.118;11.436;2022-07-10T11:31:02;19.30;96.80
29571;DHT22;16814;52.118;11.436;2022-07-10T11:33:28;19.10;95.40
29571;DHT22;16814;52.118;11.436;2022-07-10T11:35:56;19.30;95.80
29571;DHT22;16814;52.118;11.436;2022-07-10T11:38:25;19.50;96.20
29571;DHT22;16814;52.118;11.436;2022-07-10T11:40:52;19.90;95.90
29571;DHT22;16814;52.118;11.436;2022-07-10T11:43:24;19.90;95.90
29571;DHT22;16814;52.118;11.436;2022-07-10T11:45:51;19.90;93.10
29571;DHT22;16814;52.118;11.436;2022-07-10T11:48:44;20.20;95.00
29571;DHT22;16814;52.118;11.436;2022-07-10T11:51:31;20.30;95.10
29571;DHT22;16814;52.118;11.436;2022-07-10T11:54:09;20.20;94.20
29571;DHT22;16814;52.118;11.436;2022-07-10T11:56:49;20.00;95.30
29571;DHT22;16814;52.118;11.436;2022-07-10T11:59:27;19.90;95.70
29571;DHT22;16814;52.118;11.436;2022-07-10T12:01:56;19.90;95.80
29571;DHT22;16814;52.118;11.436;2022-07-10T12:04:28;19.80;95.00
29571;DHT22;16814;52.118;11.436;2022-07-10T12:06:54;19.80;94.30
29571;DHT22;16814;52.118;11.436;2022-07-10T12:09:23;19.80;94.60
29571;DHT22;16814;52.118;11.436;2022-07-10T12:12:05;19.90;95.50
29571;DHT22;16814;52.118;11.436;2022-07-10T12:14:32;19.90;94.60
29571;DHT22;16814;52.118;11.436;2022-07-10T12:17:00;19.80;94.60
29571;DHT22;16814;52.118;11.436;2022-07-10T12:19:30;19.80;94.50
29571;DHT22;16814;52.118;11.436;2022-07-10T12:21:59;19.80;93.70
29571;DHT22;16814;52.118;11.436;2022-07-10T12:24:28;19.90;93.40
29571;DHT22;16814;52.118;11.436;2022-07-10T12:26:56;20.00;93.30
29571;DHT22;16814;52.118;11.436;2022-07-10T12:29:34;20.10;94.50
29571;DHT22;16814;52.118;11.436;2022-07-10T12:32:02;20.10;94.30
29571;DHT22;16814;52.118;11.436;2022-07-10T12:34:41;20.20;94.00
29571;DHT22;16814;52.118;11.436;2022-07-10T12:37:21;20.20;93.80
29571;DHT22;16814;52.118;11.436;2022-07-10T12:39:51;20.20;92.80
29571;DHT22;16814;52.118;11.436;2022-07-10T12:42:39;19.90;92.20
29571;DHT22;16814;52.118;11.436;2022-07-10T12:45:15;20.00;93.70
29571;DHT22;16814;52.118;11.436;2022-07-10T12:48:05;19.90;93.30
29571;DHT22;16814;52.118;11.436;2022-07-10T12:50:37;20.20;92.70
29571;DHT22;16814;52.118;11.436;2022-07-10T12:53:12;20.10;92.90
29571;DHT22;16814;52.118;11.436;2022-07-10T12:55:42;20.00;93.00
29571;DHT22;16814;52.118;11.436;2022-07-10T12:58:08;19.90;92.80
29571;DHT22;16814;52.118;11.436;2022-07-10T13:00:45;19.90;92.50
29571;DHT22;16814;52.118;11.436;2022-07-10T13:03:19;20.00;93.60
29571;DHT22;16814;52.118;11.436;2022-07-10T13:05:49;20.20;93.20
29571;DHT22;16814;52.118;11.436;2022-07-10T13:08:18;20.20;93.60
29571;DHT22;16814;52.118;11.436;2022-07-10T13:10:57;20.10;92.70
29571;DHT22;16814;52.118;11.436;2022-07-10T13:13:31;20.10;91.90
29571;DHT22;16814;52.118;11.436;2022-07-10T13:16:00;20.20;92.00
29571;DHT22;16814;52.118;11.436;2022-07-10T13:18:29;20.30;90.40
29571;DHT22;16814;52.118;11.436;2022-07-10T13:20:58;20.30;90.30
29571;DHT22;16814;52.118;11.436;2022-07-10T13:23:37;20.30;90.20
29571;DHT22;16814;52.118;11.436;2022-07-10T13:26:05;20.20;90.50
29571;DHT22;16814;52.118;11.436;2022-07-10T13:28:40;20.10;90.50
29571;DHT22;16814;52.118;11.436;2022-07-10T13:31:06;20.10;90.80
29571;DHT22;16814;52.118;11.436;2022-07-10T13:33:35;20.10;91.60
29571;DHT22;16814;52.118;11.436;2022-07-10T13:36:04;20.20;92.00
29571;DHT22;16814;52.118;11.436;2022-07-10T13:38:33;20.10;91.80
29571;DHT22;16814;52.118;11.436;2022-07-10T13:40:59;19.90;92.80
29571;DHT22;16814;52.118;11.436;2022-07-10T13:43:26;19.80;93.00
29571;DHT22;16814;52.118;11.436;2022-07-10T13:45:58;19.80;94.10
29571;DHT22;16814;52.118;11.436;2022-07-10T13:48:25;19.80;92.40
29571;DHT22;16814;52.118;11.436;2022-07-10T13:50:52;20.00;92.50
29571;DHT22;16814;52.118;11.436;2022-07-10T13:53:19;20.00;91.50
29571;DHT22;16814;52.118;11.436;2022-07-10T13:55:47;20.00;92.50
29571;DHT22;16814;52.118;11.436;2022-07-10T13:58:16;19.80;92.80
29571;DHT22;16814;52.118;11.436;2022-07-10T14:00:45;19.80;93.10
29571;DHT22;16814;52.118;11.436;2022-07-10T14:03:12;19.90;92.00
29571;DHT22;16814;52.118;11.436;2022-07-10T14:05:40;20.00;91.20
29571;DHT22;16814;52.118;11.436;2022-07-10T14:08:08;20.00;92.00
29571;DHT22;16814;52.118;11.436;2022-07-10T14:10:35;19.80;92.30
29571;DHT22;16814;52.118;11.436;2022-07-10T14:13:03;20.00;91.90
29571;DHT22;16814;52.118;11.436;2022-07-10T14:15:33;20.10;92.10
29571;DHT22;16814;52.118;11.436;2022-07-10T14:17:58;20.00;91.90
29571;DHT22;16814;52.118;11.436;2022-07-10T14:20:24;20.00;92.70
29571;DHT22;16814;52.118;11.436;2022-07-10T14:22:49;19.90;92.60
29571;DHT22;16814;52.118;11.436;2022-07-10T14:25:16;19.70;93.10
29571;DHT22;16814;52.118;11.436;2022-07-10T14:27:43;19.60;93.00
29571;DHT22;16814;52.118;11.436;2022-07-10T14:30:11;19.70;93.20
29571;DHT22;16814;52.118;11.436;2022-07-10T14:32:38;19.70;92.60
29571;DHT22;16814;52.118;11.436;2022-07-10T14:35:06;19.70;93.60
29571;DHT22;16814;52.118;11.436;2022-07-10T14:37:31;19.90;93.60
29571;DHT22;16814;52.118;11.436;2022-07-10T14:39:59;20.00;92.80
29571;DHT22;16814;52.118;11.436;2022-07-10T14:42:26;20.00;92.80
29571;DHT22;16814;52.118;11.436;2022-07-10T14:44:53;19.90;92.00
29571;DHT22;16814;52.118;11.436;2022-07-10T14:47:25;20.10;91.40
29571;DHT22;16814;52.118;11.436;2022-07-10T14:49:56;20.30;91.80
29571;DHT22;16814;52.118;11.436;2022-07-10T14:52:23;20.40;91.50
29571;DHT22;16814;52.118;11.436;2022-07-10T14:54:53;20.50;91.00
29571;DHT22;16814;52.118;11.436;2022-07-10T14:57:19;20.60;91.80
29571;DHT22;16814;52.118;11.436;2022-07-10T14:59:46;20.50;91.20
29571;DHT22;16814;52.118;11.436;2022-07-10T15:02:12;20.40;91.60
29571;DHT22;16814;52.118;11.436;2022-07-10T15:04:39;20.50;91.00
29571;DHT22;16814;52.118;11.436;2022-07-10T15:07:07;20.40;90.80
29571;DHT22;16814;52.118;11.436;2022-07-10T15:09:34;20.40;90.70
29571;DHT22;16814;52.118;11.436;2022-07-10T15:12:02;20.30;90.80
29571;DHT22;16814;52.118;11.436;2022-07-10T15:14:30;20.30;91.60
29571;DHT22;16814;52.118;11.436;2022-07-10T15:16:57;20.30;90.80
29571;DHT22;16814;52.118;11.436;2022-07-10T15:19:23;20.30;91.40
29571;DHT22;16814;52.118;11.436;2022-07-10T15:21:50;20.40;90.90
29571;DHT22;16814;52.118;11.436;2022-07-10T15:24:19;20.40;91.10
29571;DHT22;16814;52.118;11.436;2022-07-10T15:26:47;20.30;91.80
29571;DHT22;16814;52.118;11.436;2022-07-10T15:29:17;20.30;92.00
29571;DHT22;16814;52.118;11.436;2022-07-10T15:31:43;20.20;90.80
29571;DHT22;16814;52.118;11.436;2022-07-10T15:34:10;20.20;91.60
29571;DHT22;16814;52.118;11.436;2022-07-10T15:36:42;20.20;90.60
29571;DHT22;16814;52.118;11.436;2022-07-10T15:39:14;20.30;91.90
29571;DHT22;16814;52.118;11.436;2022-07-10T15:41:41;20.20;90.90
29571;DHT22;16814;52.118;11.436;2022-07-10T15:44:14;20.10;91.60